If you wish to contribute or participate in the discussions about articles you are invited to join SKYbrary as a registered user

 Actions

Orléans-Bricy (BA 123) Air Base

From SKYbrary Wiki

LFOJ
Airport
ICAO: LFOJ – IATA: ORE
Summary
Name Orléans-Bricy (BA 123) Air Base
Region Europe
Territory France FR.gif
Location , Centre
Serving Orleans
Elevation 125.578 m
412 ft
412 ft125.578 m
Type medium airport
Coordinates 47° 59' 16.00" N, 1° 45' 38.00" E
Runways
Designator Length Width Surface ROPS
7/25 2404 m7,887.139 ft
45 m147.638 ft
ASP /


METAR
Observation LFOJ 221730Z AUTO 04007KT CAVOK 26/08 Q1023 NOSIG
Station Orleans
Date/Time 22 August 2019 17:30:00
Wind direction 40°
Wind speed 07 kts
Lowest cloud amount clouds and visibility OK
Temperature 26°C
Dew point 8°C
Humidity 31%
QNH 1023 hPa
Weather condition n/a